sensor_id;sensor_type;location;lat;lon;timestamp;temperature;humidity
25554;DHT22;13446;50.926;5.332;2023-03-01T00:00:53;2.30;99.90
25554;DHT22;13446;50.926;5.332;2023-03-01T00:03:18;2.10;99.90
25554;DHT22;13446;50.926;5.332;2023-03-01T00:05:47;2.10;99.90
25554;DHT22;13446;50.926;5.332;2023-03-01T00:08:12;2.10;99.90
25554;DHT22;13446;50.926;5.332;2023-03-01T00:10:38;2.10;99.90
25554;DHT22;13446;50.926;5.332;2023-03-01T00:13:03;2.10;99.90
25554;DHT22;13446;50.926;5.332;2023-03-01T00:15:30;2.20;99.90
25554;DHT22;13446;50.926;5.332;2023-03-01T00:17:56;2.20;99.90
25554;DHT22;13446;50.926;5.332;2023-03-01T00:20:22;2.10;99.90
25554;DHT22;13446;50.926;5.332;2023-03-01T00:22:48;2.10;99.90
25554;DHT22;13446;50.926;5.332;2023-03-01T00:25:13;2.10;99.90
25554;DHT22;13446;50.926;5.332;2023-03-01T00:27:39;2.10;99.90
25554;DHT22;13446;50.926;5.332;2023-03-01T00:30:04;2.10;99.90
25554;DHT22;13446;50.926;5.332;2023-03-01T00:32:30;2.10;99.90
25554;DHT22;13446;50.926;5.332;2023-03-01T00:34:55;2.10;99.90
25554;DHT22;13446;50.926;5.332;2023-03-01T00:37:21;2.30;99.90
25554;DHT22;13446;50.926;5.332;2023-03-01T00:39:47;2.40;99.90
25554;DHT22;13446;50.926;5.332;2023-03-01T00:42:13;2.40;99.90
25554;DHT22;13446;50.926;5.332;2023-03-01T00:44:38;2.30;99.90
25554;DHT22;13446;50.926;5.332;2023-03-01T00:47:04;2.30;99.90
25554;DHT22;13446;50.926;5.332;2023-03-01T00:49:29;2.10;99.90
25554;DHT22;13446;50.926;5.332;2023-03-01T00:51:55;2.10;99.90
25554;DHT22;13446;50.926;5.332;2023-03-01T00:54:21;2.10;99.90
25554;DHT22;13446;50.926;5.332;2023-03-01T00:56:46;2.00;99.90
25554;DHT22;13446;50.926;5.332;2023-03-01T00:59:12;2.10;99.90
25554;DHT22;13446;50.926;5.332;2023-03-01T01:01:37;2.10;99.90
25554;DHT22;13446;50.926;5.332;2023-03-01T01:04:04;1.90;99.90
25554;DHT22;13446;50.926;5.332;2023-03-01T01:06:32;2.00;99.90
25554;DHT22;13446;50.926;5.332;2023-03-01T01:08:58;1.90;99.90
25554;DHT22;13446;50.926;5.332;2023-03-01T01:11:24;2.00;99.90
25554;DHT22;13446;50.926;5.332;2023-03-01T01:13:50;2.00;99.90
25554;DHT22;13446;50.926;5.332;2023-03-01T01:16:16;1.90;99.90
25554;DHT22;13446;50.926;5.332;2023-03-01T01:18:42;2.10;99.90
25554;DHT22;13446;50.926;5.332;2023-03-01T01:21:08;2.10;99.90
25554;DHT22;13446;50.926;5.332;2023-03-01T01:23:36;2.20;99.90
25554;DHT22;13446;50.926;5.332;2023-03-01T01:26:09;2.00;99.90
25554;DHT22;13446;50.926;5.332;2023-03-01T01:28:35;1.80;99.90
25554;DHT22;13446;50.926;5.332;2023-03-01T01:31:01;1.70;99.90
25554;DHT22;13446;50.926;5.332;2023-03-01T01:33:26;1.60;99.90
25554;DHT22;13446;50.926;5.332;2023-03-01T01:35:52;1.80;99.90
25554;DHT22;13446;50.926;5.332;2023-03-01T01:38:17;1.70;99.90
25554;DHT22;13446;50.926;5.332;2023-03-01T01:40:44;1.60;99.90
25554;DHT22;13446;50.926;5.332;2023-03-01T01:45:44;1.60;99.90
25554;DHT22;13446;50.926;5.332;2023-03-01T01:48:10;1.50;99.90
25554;DHT22;13446;50.926;5.332;2023-03-01T01:50:39;1.40;99.90
25554;DHT22;13446;50.926;5.332;2023-03-01T01:53:07;1.70;99.90
25554;DHT22;13446;50.926;5.332;2023-03-01T01:55:34;1.60;99.90
25554;DHT22;13446;50.926;5.332;2023-03-01T01:58:02;1.70;99.90
25554;DHT22;13446;50.926;5.332;2023-03-01T02:00:29;1.60;99.90
25554;DHT22;13446;50.926;5.332;2023-03-01T02:02:57;1.50;99.90
25554;DHT22;13446;50.926;5.332;2023-03-01T02:07:48;1.50;99.90
25554;DHT22;13446;50.926;5.332;2023-03-01T02:10:14;1.50;99.90
25554;DHT22;13446;50.926;5.332;2023-03-01T02:12:40;1.30;99.90
25554;DHT22;13446;50.926;5.332;2023-03-01T02:15:07;1.20;99.90
25554;DHT22;13446;50.926;5.332;2023-03-01T02:17:33;1.20;99.90
25554;DHT22;13446;50.926;5.332;2023-03-01T02:22:43;1.50;99.90
25554;DHT22;13446;50.926;5.332;2023-03-01T02:30:19;1.50;99.90
25554;DHT22;13446;50.926;5.332;2023-03-01T02:32:45;1.50;99.90
25554;DHT22;13446;50.926;5.332;2023-03-01T02:35:13;1.40;99.90
25554;DHT22;13446;50.926;5.332;2023-03-01T02:37:39;1.20;99.90
25554;DHT22;13446;50.926;5.332;2023-03-01T02:40:07;1.10;99.90
25554;DHT22;13446;50.926;5.332;2023-03-01T02:42:39;1.10;99.90
25554;DHT22;13446;50.926;5.332;2023-03-01T02:45:07;1.10;99.90
25554;DHT22;13446;50.926;5.332;2023-03-01T02:47:32;1.20;99.90
25554;DHT22;13446;50.926;5.332;2023-03-01T02:49:58;1.00;99.90
25554;DHT22;13446;50.926;5.332;2023-03-01T02:55:09;1.10;99.90
25554;DHT22;13446;50.926;5.332;2023-03-01T02:57:37;1.20;99.90
25554;DHT22;13446;50.926;5.332;2023-03-01T03:00:05;0.90;99.90
25554;DHT22;13446;50.926;5.332;2023-03-01T03:02:32;0.80;99.90
25554;DHT22;13446;50.926;5.332;2023-03-01T03:05:02;0.80;99.90
25554;DHT22;13446;50.926;5.332;2023-03-01T03:07:28;0.70;99.90
25554;DHT22;13446;50.926;5.332;2023-03-01T03:09:53;0.80;99.90
25554;DHT22;13446;50.926;5.332;2023-03-01T03:12:19;1.00;99.90
25554;DHT22;13446;50.926;5.332;2023-03-01T03:14:44;0.90;99.90
25554;DHT22;13446;50.926;5.332;2023-03-01T03:17:10;1.00;99.90
25554;DHT22;13446;50.926;5.332;2023-03-01T03:19:35;1.10;99.90
25554;DHT22;13446;50.926;5.332;2023-03-01T03:22:00;1.10;99.90
25554;DHT22;13446;50.926;5.332;2023-03-01T03:24:27;1.00;99.90
25554;DHT22;13446;50.926;5.332;2023-03-01T03:26:53;0.90;99.90
25554;DHT22;13446;50.926;5.332;2023-03-01T03:29:19;0.80;99.90
25554;DHT22;13446;50.926;5.332;2023-03-01T03:31:44;1.00;99.90
25554;DHT22;13446;50.926;5.332;2023-03-01T03:34:10;1.20;99.90
25554;DHT22;13446;50.926;5.332;2023-03-01T03:36:43;1.00;99.90
25554;DHT22;13446;50.926;5.332;2023-03-01T03:39:08;0.80;99.90
25554;DHT22;13446;50.926;5.332;2023-03-01T03:41:34;0.70;99.90
25554;DHT22;13446;50.926;5.332;2023-03-01T03:44:00;0.60;99.90
25554;DHT22;13446;50.926;5.332;2023-03-01T03:46:25;0.70;99.90
25554;DHT22;13446;50.926;5.332;2023-03-01T03:48:51;0.60;99.90
25554;DHT22;13446;50.926;5.332;2023-03-01T03:51:17;0.60;99.90
25554;DHT22;13446;50.926;5.332;2023-03-01T03:53:43;0.60;99.90
25554;DHT22;13446;50.926;5.332;2023-03-01T03:56:09;0.60;99.90
25554;DHT22;13446;50.926;5.332;2023-03-01T03:58:34;0.60;99.90
25554;DHT22;13446;50.926;5.332;2023-03-01T04:01:00;0.70;99.90
25554;DHT22;13446;50.926;5.332;2023-03-01T04:03:26;0.60;99.90
25554;DHT22;13446;50.926;5.332;2023-03-01T04:05:54;0.60;99.90
25554;DHT22;13446;50.926;5.332;2023-03-01T04:08:20;0.60;99.90
25554;DHT22;13446;50.926;5.332;2023-03-01T04:10:47;0.50;99.90
25554;DHT22;13446;50.926;5.332;2023-03-01T04:13:14;0.60;99.90
25554;DHT22;13446;50.926;5.332;2023-03-01T04:15:40;0.50;99.90
25554;DHT22;13446;50.926;5.332;2023-03-01T04:18:08;0.60;99.90
25554;DHT22;13446;50.926;5.332;2023-03-01T04:20:35;0.70;99.90
25554;DHT22;13446;50.926;5.332;2023-03-01T04:25:37;0.70;99.90
25554;DHT22;13446;50.926;5.332;2023-03-01T04:28:02;0.60;99.90
25554;DHT22;13446;50.926;5.332;2023-03-01T04:30:28;0.70;99.90
25554;DHT22;13446;50.926;5.332;2023-03-01T04:32:54;0.70;99.90
25554;DHT22;13446;50.926;5.332;2023-03-01T04:35:19;0.50;99.90
25554;DHT22;13446;50.926;5.332;2023-03-01T04:37:45;0.60;99.90
25554;DHT22;13446;50.926;5.332;2023-03-01T04:40:11;0.50;99.90
25554;DHT22;13446;50.926;5.332;2023-03-01T04:42:42;0.50;99.90
25554;DHT22;13446;50.926;5.332;2023-03-01T04:45:07;0.50;99.90
25554;DHT22;13446;50.926;5.332;2023-03-01T04:47:42;0.30;99.90
25554;DHT22;13446;50.926;5.332;2023-03-01T04:50:08;0.40;99.90
25554;DHT22;13446;50.926;5.332;2023-03-01T04:52:35;0.20;99.90
25554;DHT22;13446;50.926;5.332;2023-03-01T04:55:00;0.20;99.90
25554;DHT22;13446;50.926;5.332;2023-03-01T04:57:26;0.20;99.90
25554;DHT22;13446;50.926;5.332;2023-03-01T04:59:52;0.40;99.90
25554;DHT22;13446;50.926;5.332;2023-03-01T05:02:17;0.50;99.90
25554;DHT22;13446;50.926;5.332;2023-03-01T05:04:44;0.30;99.90
25554;DHT22;13446;50.926;5.332;2023-03-01T05:07:09;0.20;99.90
25554;DHT22;13446;50.926;5.332;2023-03-01T05:09:35;0.10;99.90
25554;DHT22;13446;50.926;5.332;2023-03-01T05:12:00;0.10;99.90
25554;DHT22;13446;50.926;5.332;2023-03-01T05:14:26;0.00;99.90
25554;DHT22;13446;50.926;5.332;2023-03-01T05:16:51;0.20;99.90
25554;DHT22;13446;50.926;5.332;2023-03-01T05:19:17;0.10;99.90
25554;DHT22;13446;50.926;5.332;2023-03-01T05:21:48;0.00;99.90
25554;DHT22;13446;50.926;5.332;2023-03-01T05:24:34;0.00;99.90
25554;DHT22;13446;50.926;5.332;2023-03-01T05:27:01;0.20;99.90
25554;DHT22;13446;50.926;5.332;2023-03-01T05:29:28;0.10;99.90
25554;DHT22;13446;50.926;5.332;2023-03-01T05:31:54;0.00;99.90
25554;DHT22;13446;50.926;5.332;2023-03-01T05:34:24;-0.10;99.90
25554;DHT22;13446;50.926;5.332;2023-03-01T05:36:51;-0.10;99.90
25554;DHT22;13446;50.926;5.332;2023-03-01T05:39:19;0.10;99.90
25554;DHT22;13446;50.926;5.332;2023-03-01T05:41:45;0.00;99.90
25554;DHT22;13446;50.926;5.332;2023-03-01T05:44:11;-0.10;99.90
25554;DHT22;13446;50.926;5.332;2023-03-01T05:46:37;-0.10;99.90
25554;DHT22;13446;50.926;5.332;2023-03-01T05:49:03;-0.20;99.90
25554;DHT22;13446;50.926;5.332;2023-03-01T05:51:29;-0.20;99.90
25554;DHT22;13446;50.926;5.332;2023-03-01T05:53:57;-0.20;99.90
25554;DHT22;13446;50.926;5.332;2023-03-01T05:56:23;-0.10;99.90
25554;DHT22;13446;50.926;5.332;2023-03-01T05:58:51;-0.30;99.90
25554;DHT22;13446;50.926;5.332;2023-03-01T06:01:16;-0.30;99.90
25554;DHT22;13446;50.926;5.332;2023-03-01T06:03:42;-0.30;99.90
25554;DHT22;13446;50.926;5.332;2023-03-01T06:06:08;-0.30;99.90
25554;DHT22;13446;50.926;5.332;2023-03-01T06:08:33;-0.40;99.90
25554;DHT22;13446;50.926;5.332;2023-03-01T06:10:59;-0.40;99.90
25554;DHT22;13446;50.926;5.332;2023-03-01T06:13:24;-0.40;99.90
25554;DHT22;13446;50.926;5.332;2023-03-01T06:15:50;-0.50;99.90
25554;DHT22;13446;50.926;5.332;2023-03-01T06:18:16;-0.40;99.90
25554;DHT22;13446;50.926;5.332;2023-03-01T06:20:41;-0.50;99.90
25554;DHT22;13446;50.926;5.332;2023-03-01T06:23:07;-0.30;99.90
25554;DHT22;13446;50.926;5.332;2023-03-01T06:25:32;-0.20;99.90
25554;DHT22;13446;50.926;5.332;2023-03-01T06:27:58;-0.20;99.90
25554;DHT22;13446;50.926;5.332;2023-03-01T06:30:24;-0.30;99.90
25554;DHT22;13446;50.926;5.332;2023-03-01T06:32:50;-0.30;99.90
25554;DHT22;13446;50.926;5.332;2023-03-01T06:35:16;-0.30;99.90
25554;DHT22;13446;50.926;5.332;2023-03-01T06:37:43;0.00;99.90
25554;DHT22;13446;50.926;5.332;2023-03-01T06:40:09;-0.20;99.90
25554;DHT22;13446;50.926;5.332;2023-03-01T06:42:37;-0.10;99.90
25554;DHT22;13446;50.926;5.332;2023-03-01T06:45:03;0.00;99.90
25554;DHT22;13446;50.926;5.332;2023-03-01T06:47:29;-0.10;99.90
25554;DHT22;13446;50.926;5.332;2023-03-01T06:49:55;-0.20;99.90
25554;DHT22;13446;50.926;5.332;2023-03-01T06:52:20;-0.30;99.90
25554;DHT22;13446;50.926;5.332;2023-03-01T06:54:46;-0.40;99.90
25554;DHT22;13446;50.926;5.332;2023-03-01T06:57:11;-0.30;99.90
25554;DHT22;13446;50.926;5.332;2023-03-01T06:59:37;-0.30;99.90
25554;DHT22;13446;50.926;5.332;2023-03-01T07:02:02;-0.10;99.90
25554;DHT22;13446;50.926;5.332;2023-03-01T07:04:28;0.00;99.90
25554;DHT22;13446;50.926;5.332;2023-03-01T07:06:55;-0.10;99.90
25554;DHT22;13446;50.926;5.332;2023-03-01T07:09:24;0.00;99.90
25554;DHT22;13446;50.926;5.332;2023-03-01T07:11:49;0.20;99.90
25554;DHT22;13446;50.926;5.332;2023-03-01T07:14:15;0.30;99.90
25554;DHT22;13446;50.926;5.332;2023-03-01T07:16:41;0.40;99.90
25554;DHT22;13446;50.926;5.332;2023-03-01T07:19:06;0.40;99.90
25554;DHT22;13446;50.926;5.332;2023-03-01T07:21:32;0.30;99.90
25554;DHT22;13446;50.926;5.332;2023-03-01T07:23:58;0.40;99.90
25554;DHT22;13446;50.926;5.332;2023-03-01T07:26:23;0.40;99.90
25554;DHT22;13446;50.926;5.332;2023-03-01T07:28:49;0.50;99.90
25554;DHT22;13446;50.926;5.332;2023-03-01T07:31:14;1.10;99.90
25554;DHT22;13446;50.926;5.332;2023-03-01T07:33:40;2.10;99.90
25554;DHT22;13446;50.926;5.332;2023-03-01T07:36:05;3.50;99.90
25554;DHT22;13446;50.926;5.332;2023-03-01T07:38:31;4.80;99.90
25554;DHT22;13446;50.926;5.332;2023-03-01T07:40:58;5.90;99.90
25554;DHT22;13446;50.926;5.332;2023-03-01T07:43:24;6.80;99.90
25554;DHT22;13446;50.926;5.332;2023-03-01T07:45:49;8.00;99.90
25554;DHT22;13446;50.926;5.332;2023-03-01T07:48:15;9.30;99.90
25554;DHT22;13446;50.926;5.332;2023-03-01T07:50:40;9.80;95.10
25554;DHT22;13446;50.926;5.332;2023-03-01T07:53:08;10.70;92.30
25554;DHT22;13446;50.926;5.332;2023-03-01T07:55:34;11.30;81.50
25554;DHT22;13446;50.926;5.332;2023-03-01T07:57:59;11.30;81.50
25554;DHT22;13446;50.926;5.332;2023-03-01T08:00:25;11.90;76.80
25554;DHT22;13446;50.926;5.332;2023-03-01T08:02:52;12.50;73.20
25554;DHT22;13446;50.926;5.332;2023-03-01T08:05:19;13.40;68.30
25554;DHT22;13446;50.926;5.332;2023-03-01T08:07:44;14.00;63.40
25554;DHT22;13446;50.926;5.332;2023-03-01T08:10:10;13.80;59.20
25554;DHT22;13446;50.926;5.332;2023-03-01T08:12:35;14.40;56.80
25554;DHT22;13446;50.926;5.332;2023-03-01T08:15:01;14.60;56.10
25554;DHT22;13446;50.926;5.332;2023-03-01T08:17:27;15.10;53.70
25554;DHT22;13446;50.926;5.332;2023-03-01T08:19:52;15.20;52.50
25554;DHT22;13446;50.926;5.332;2023-03-01T08:22:18;15.90;51.60
25554;DHT22;13446;50.926;5.332;2023-03-01T08:24:44;15.40;49.20
25554;DHT22;13446;50.926;5.332;2023-03-01T08:27:09;15.40;50.50
25554;DHT22;13446;50.926;5.332;2023-03-01T08:29:35;16.40;50.00
25554;DHT22;13446;50.926;5.332;2023-03-01T08:32:01;17.10;46.60
25554;DHT22;13446;50.926;5.332;2023-03-01T08:34:26;17.00;45.80
25554;DHT22;13446;50.926;5.332;2023-03-01T08:36:52;17.70;45.60
25554;DHT22;13446;50.926;5.332;2023-03-01T08:39:18;18.10;44.70
25554;DHT22;13446;50.926;5.332;2023-03-01T08:41:45;18.70;43.30
25554;DHT22;13446;50.926;5.332;2023-03-01T08:44:11;19.20;41.10
25554;DHT22;13446;50.926;5.332;2023-03-01T08:46:41;19.30;40.70
25554;DHT22;13446;50.926;5.332;2023-03-01T08:49:07;20.00;40.00
25554;DHT22;13446;50.926;5.332;2023-03-01T08:51:33;20.10;39.00
25554;DHT22;13446;50.926;5.332;2023-03-01T08:54:12;19.80;38.60
25554;DHT22;13446;50.926;5.332;2023-03-01T08:56:40;19.90;38.50
25554;DHT22;13446;50.926;5.332;2023-03-01T08:59:05;19.90;38.90
25554;DHT22;13446;50.926;5.332;2023-03-01T09:01:31;20.30;37.90
25554;DHT22;13446;50.926;5.332;2023-03-01T09:03:57;20.90;37.40
25554;DHT22;13446;50.926;5.332;2023-03-01T09:06:22;21.30;35.90
25554;DHT22;13446;50.926;5.332;2023-03-01T09:08:50;21.00;35.40
25554;DHT22;13446;50.926;5.332;2023-03-01T09:11:17;20.00;36.20
25554;DHT22;13446;50.926;5.332;2023-03-01T09:13:45;18.90;37.10
25554;DHT22;13446;50.926;5.332;2023-03-01T09:16:11;19.10;37.80
25554;DHT22;13446;50.926;5.332;2023-03-01T09:18:37;19.10;37.90
25554;DHT22;13446;50.926;5.332;2023-03-01T09:21:04;20.00;37.60
25554;DHT22;13446;50.926;5.332;2023-03-01T09:23:36;20.50;36.30
25554;DHT22;13446;50.926;5.332;2023-03-01T09:26:03;20.80;34.70
25554;DHT22;13446;50.926;5.332;2023-03-01T09:28:28;20.90;34.70
25554;DHT22;13446;50.926;5.332;2023-03-01T09:30:57;20.40;35.30
25554;DHT22;13446;50.926;5.332;2023-03-01T09:33:22;21.00;35.40
25554;DHT22;13446;50.926;5.332;2023-03-01T09:35:48;21.80;33.90
25554;DHT22;13446;50.926;5.332;2023-03-01T09:38:13;22.00;33.30
25554;DHT22;13446;50.926;5.332;2023-03-01T09:40:43;22.30;33.40
25554;DHT22;13446;50.926;5.332;2023-03-01T09:45:45;23.10;32.00
25554;DHT22;13446;50.926;5.332;2023-03-01T09:48:17;23.50;31.30
25554;DHT22;13446;50.926;5.332;2023-03-01T09:50:44;23.80;30.60
25554;DHT22;13446;50.926;5.332;2023-03-01T09:53:16;22.00;30.10
25554;DHT22;13446;50.926;5.332;2023-03-01T09:55:44;22.20;31.00
25554;DHT22;13446;50.926;5.332;2023-03-01T10:00:56;21.70;30.40
25554;DHT22;13446;50.926;5.332;2023-03-01T10:03:26;20.40;31.60
25554;DHT22;13446;50.926;5.332;2023-03-01T10:08:41;21.10;32.00
25554;DHT22;13446;50.926;5.332;2023-03-01T10:11:21;20.90;32.40
25554;DHT22;13446;50.926;5.332;2023-03-01T10:19:03;20.50;32.20
25554;DHT22;13446;50.926;5.332;2023-03-01T10:21:29;20.60;32.20
25554;DHT22;13446;50.926;5.332;2023-03-01T10:24:01;20.80;32.50
25554;DHT22;13446;50.926;5.332;2023-03-01T10:26:37;20.40;31.40
25554;DHT22;13446;50.926;5.332;2023-03-01T10:29:05;20.80;32.10
25554;DHT22;13446;50.926;5.332;2023-03-01T10:34:38;20.00;33.00
25554;DHT22;13446;50.926;5.332;2023-03-01T10:37:04;20.30;32.20
25554;DHT22;13446;50.926;5.332;2023-03-01T10:39:34;20.30;31.70
25554;DHT22;13446;50.926;5.332;2023-03-01T10:42:01;20.30;31.80
25554;DHT22;13446;50.926;5.332;2023-03-01T10:44:43;19.80;32.60
25554;DHT22;13446;50.926;5.332;2023-03-01T10:47:13;19.20;33.10
25554;DHT22;13446;50.926;5.332;2023-03-01T10:49:39;20.30;32.60
25554;DHT22;13446;50.926;5.332;2023-03-01T10:52:11;20.80;30.90
25554;DHT22;13446;50.926;5.332;2023-03-01T10:54:42;20.80;32.30
25554;DHT22;13446;50.926;5.332;2023-03-01T10:57:33;21.30;30.80
25554;DHT22;13446;50.926;5.332;2023-03-01T11:02:47;21.00;30.60
25554;DHT22;13446;50.926;5.332;2023-03-01T11:07:48;19.80;32.30
25554;DHT22;13446;50.926;5.332;2023-03-01T11:10:18;19.90;32.30
25554;DHT22;13446;50.926;5.332;2023-03-01T11:12:44;20.10;32.20
25554;DHT22;13446;50.926;5.332;2023-03-01T11:15:19;19.00;32.00
25554;DHT22;13446;50.926;5.332;2023-03-01T11:17:45;19.00;33.20
25554;DHT22;13446;50.926;5.332;2023-03-01T11:25:43;18.00;33.60
25554;DHT22;13446;50.926;5.332;2023-03-01T11:28:13;19.40;33.40
25554;DHT22;13446;50.926;5.332;2023-03-01T11:33:33;19.90;32.10
25554;DHT22;13446;50.926;5.332;2023-03-01T11:36:01;19.80;31.60
25554;DHT22;13446;50.926;5.332;2023-03-01T11:38:29;19.70;32.40
25554;DHT22;13446;50.926;5.332;2023-03-01T11:46:50;21.10;31.30
25554;DHT22;13446;50.926;5.332;2023-03-01T11:51:49;21.60;28.60
25554;DHT22;13446;50.926;5.332;2023-03-01T11:56:54;20.70;30.50
25554;DHT22;13446;50.926;5.332;2023-03-01T12:04:52;22.40;28.50
25554;DHT22;13446;50.926;5.332;2023-03-01T12:20:20;21.90;29.00
25554;DHT22;13446;50.926;5.332;2023-03-01T12:40:55;21.80;28.90
25554;DHT22;13446;50.926;5.332;2023-03-01T12:48:47;21.30;29.40
25554;DHT22;13446;50.926;5.332;2023-03-01T12:51:17;21.20;29.40
25554;DHT22;13446;50.926;5.332;2023-03-01T12:53:48;20.80;29.40
25554;DHT22;13446;50.926;5.332;2023-03-01T12:56:19;20.50;29.70
25554;DHT22;13446;50.926;5.332;2023-03-01T13:06:33;20.00;31.20
25554;DHT22;13446;50.926;5.332;2023-03-01T13:11:51;19.80;31.30
25554;DHT22;13446;50.926;5.332;2023-03-01T13:16:45;19.90;31.40
25554;DHT22;13446;50.926;5.332;2023-03-01T13:19:17;19.70;31.30
25554;DHT22;13446;50.926;5.332;2023-03-01T13:21:44;19.40;31.40
25554;DHT22;13446;50.926;5.332;2023-03-01T13:27:11;19.10;31.40
25554;DHT22;13446;50.926;5.332;2023-03-01T13:32:22;18.30;32.70
25554;DHT22;13446;50.926;5.332;2023-03-01T13:34:49;17.80;33.80
25554;DHT22;13446;50.926;5.332;2023-03-01T13:37:19;17.70;34.30
25554;DHT22;13446;50.926;5.332;2023-03-01T13:39:44;18.00;33.10
25554;DHT22;13446;50.926;5.332;2023-03-01T13:44:54;17.90;33.10
25554;DHT22;13446;50.926;5.332;2023-03-01T13:47:21;18.10;33.50
25554;DHT22;13446;50.926;5.332;2023-03-01T13:49:47;18.00;33.60
25554;DHT22;13446;50.926;5.332;2023-03-01T13:54:59;17.20;34.60
25554;DHT22;13446;50.926;5.332;2023-03-01T13:57:30;16.40;35.50
25554;DHT22;13446;50.926;5.332;2023-03-01T13:59:58;16.80;35.70
25554;DHT22;13446;50.926;5.332;2023-03-01T14:02:25;16.10;36.00
25554;DHT22;13446;50.926;5.332;2023-03-01T14:04:59;15.90;36.70
25554;DHT22;13446;50.926;5.332;2023-03-01T14:07:26;16.30;36.90
25554;DHT22;13446;50.926;5.332;2023-03-01T14:09:56;16.30;36.70
25554;DHT22;13446;50.926;5.332;2023-03-01T14:20:39;15.30;36.40
25554;DHT22;13446;50.926;5.332;2023-03-01T14:23:13;15.20;37.50
25554;DHT22;13446;50.926;5.332;2023-03-01T14:25:45;15.40;36.80
25554;DHT22;13446;50.926;5.332;2023-03-01T14:30:37;14.40;38.40
25554;DHT22;13446;50.926;5.332;2023-03-01T14:33:04;14.10;39.70
25554;DHT22;13446;50.926;5.332;2023-03-01T14:35:33;13.20;40.00
25554;DHT22;13446;50.926;5.332;2023-03-01T14:38:02;12.60;40.90
25554;DHT22;13446;50.926;5.332;2023-03-01T14:40:28;11.90;42.20
25554;DHT22;13446;50.926;5.332;2023-03-01T14:42:55;11.40;43.80
25554;DHT22;13446;50.926;5.332;2023-03-01T14:45:22;11.10;44.90
25554;DHT22;13446;50.926;5.332;2023-03-01T14:47:48;11.00;46.00
25554;DHT22;13446;50.926;5.332;2023-03-01T14:50:27;10.90;46.90
25554;DHT22;13446;50.926;5.332;2023-03-01T14:53:00;10.70;46.30
25554;DHT22;13446;50.926;5.332;2023-03-01T14:55:31;10.50;46.80
25554;DHT22;13446;50.926;5.332;2023-03-01T14:57:58;10.40;47.00
25554;DHT22;13446;50.926;5.332;2023-03-01T15:00:24;10.50;48.00
25554;DHT22;13446;50.926;5.332;2023-03-01T15:02:52;10.60;48.30
25554;DHT22;13446;50.926;5.332;2023-03-01T15:05:21;10.50;47.00
25554;DHT22;13446;50.926;5.332;2023-03-01T15:07:47;10.40;48.00
25554;DHT22;13446;50.926;5.332;2023-03-01T15:13:24;9.90;51.60
25554;DHT22;13446;50.926;5.332;2023-03-01T15:15:51;10.10;50.80
25554;DHT22;13446;50.926;5.332;2023-03-01T15:18:18;10.00;51.10
25554;DHT22;13446;50.926;5.332;2023-03-01T15:20:44;9.90;51.00
25554;DHT22;13446;50.926;5.332;2023-03-01T15:23:21;9.90;51.40
25554;DHT22;13446;50.926;5.332;2023-03-01T15:25:47;9.70;51.90
25554;DHT22;13446;50.926;5.332;2023-03-01T15:28:22;9.70;53.20
25554;DHT22;13446;50.926;5.332;2023-03-01T15:30:58;9.70;52.80
25554;DHT22;13446;50.926;5.332;2023-03-01T15:35:56;9.80;52.40
25554;DHT22;13446;50.926;5.332;2023-03-01T15:41:24;9.60;52.60
25554;DHT22;13446;50.926;5.332;2023-03-01T15:43:51;9.60;52.80
25554;DHT22;13446;50.926;5.332;2023-03-01T15:46:25;9.40;53.50
25554;DHT22;13446;50.926;5.332;2023-03-01T15:48:52;9.10;55.20
25554;DHT22;13446;50.926;5.332;2023-03-01T15:51:22;9.00;56.10
25554;DHT22;13446;50.926;5.332;2023-03-01T15:53:49;9.10;55.70
25554;DHT22;13446;50.926;5.332;2023-03-01T15:56:15;9.30;54.40
25554;DHT22;13446;50.926;5.332;2023-03-01T15:58:41;9.40;53.90
25554;DHT22;13446;50.926;5.332;2023-03-01T16:01:11;9.20;53.40
25554;DHT22;13446;50.926;5.332;2023-03-01T16:03:38;9.10;52.40
25554;DHT22;13446;50.926;5.332;2023-03-01T16:06:03;8.90;52.10
25554;DHT22;13446;50.926;5.332;2023-03-01T16:08:30;8.90;53.50
25554;DHT22;13446;50.926;5.332;2023-03-01T16:10:56;8.90;54.00
25554;DHT22;13446;50.926;5.332;2023-03-01T16:13:21;8.90;53.80
25554;DHT22;13446;50.926;5.332;2023-03-01T16:15:47;9.00;53.80
25554;DHT22;13446;50.926;5.332;2023-03-01T16:18:12;8.90;53.90
25554;DHT22;13446;50.926;5.332;2023-03-01T16:20:38;8.90;53.10
25554;DHT22;13446;50.926;5.332;2023-03-01T16:23:05;8.80;53.90
25554;DHT22;13446;50.926;5.332;2023-03-01T16:25:31;8.70;55.30
25554;DHT22;13446;50.926;5.332;2023-03-01T16:27:59;8.60;54.70
25554;DHT22;13446;50.926;5.332;2023-03-01T16:30:26;8.50;55.60
25554;DHT22;13446;50.926;5.332;2023-03-01T16:32:52;8.40;56.60
25554;DHT22;13446;50.926;5.332;2023-03-01T16:35:19;8.60;56.60
25554;DHT22;13446;50.926;5.332;2023-03-01T16:37:46;8.50;57.10
25554;DHT22;13446;50.926;5.332;2023-03-01T16:42:43;8.70;57.50
25554;DHT22;13446;50.926;5.332;2023-03-01T16:45:09;8.60;58.00
25554;DHT22;13446;50.926;5.332;2023-03-01T16:47:34;8.60;58.10
25554;DHT22;13446;50.926;5.332;2023-03-01T16:50:00;8.40;58.60
25554;DHT22;13446;50.926;5.332;2023-03-01T16:52:26;8.40;59.40
25554;DHT22;13446;50.926;5.332;2023-03-01T16:54:51;8.40;59.60
25554;DHT22;13446;50.926;5.332;2023-03-01T16:57:17;8.30;60.40
25554;DHT22;13446;50.926;5.332;2023-03-01T16:59:43;8.30;60.50
25554;DHT22;13446;50.926;5.332;2023-03-01T17:02:10;8.20;61.60
25554;DHT22;13446;50.926;5.332;2023-03-01T17:04:36;8.10;62.50
25554;DHT22;13446;50.926;5.332;2023-03-01T17:07:02;8.10;63.50
25554;DHT22;13446;50.926;5.332;2023-03-01T17:09:28;8.10;62.70
25554;DHT22;13446;50.926;5.332;2023-03-01T17:11:54;7.90;64.10
25554;DHT22;13446;50.926;5.332;2023-03-01T17:14:20;7.80;64.90
25554;DHT22;13446;50.926;5.332;2023-03-01T17:16:46;7.70;65.70
25554;DHT22;13446;50.926;5.332;2023-03-01T17:19:11;7.80;66.20
25554;DHT22;13446;50.926;5.332;2023-03-01T17:21:43;7.90;65.70
25554;DHT22;13446;50.926;5.332;2023-03-01T17:24:09;7.80;66.20
25554;DHT22;13446;50.926;5.332;2023-03-01T17:26:34;7.80;67.00
25554;DHT22;13446;50.926;5.332;2023-03-01T17:29:00;7.70;68.00
25554;DHT22;13446;50.926;5.332;2023-03-01T17:31:26;7.60;68.90
25554;DHT22;13446;50.926;5.332;2023-03-01T17:33:51;7.50;69.20
25554;DHT22;13446;50.926;5.332;2023-03-01T17:36:17;7.50;70.10
25554;DHT22;13446;50.926;5.332;2023-03-01T17:38:42;7.40;70.60
25554;DHT22;13446;50.926;5.332;2023-03-01T17:41:08;7.40;71.60
25554;DHT22;13446;50.926;5.332;2023-03-01T17:43:36;7.40;72.60
25554;DHT22;13446;50.926;5.332;2023-03-01T17:46:02;7.40;72.60
25554;DHT22;13446;50.926;5.332;2023-03-01T17:48:27;7.40;73.40
25554;DHT22;13446;50.926;5.332;2023-03-01T17:50:53;7.40;72.90
25554;DHT22;13446;50.926;5.332;2023-03-01T17:53:20;7.30;73.60
25554;DHT22;13446;50.926;5.332;2023-03-01T17:55:46;7.30;74.50
25554;DHT22;13446;50.926;5.332;2023-03-01T17:58:14;7.30;74.90
25554;DHT22;13446;50.926;5.332;2023-03-01T18:00:39;7.30;75.10
25554;DHT22;13446;50.926;5.332;2023-03-01T18:03:05;7.30;75.80
25554;DHT22;13446;50.926;5.332;2023-03-01T18:05:32;7.10;76.30